BENVENUTI AL 154° GRUPPO VIRTUALE
  • Home
  • Missioni Operative
  • Folder Medio

METAR & TAF

[Source: ADDS]
METAR
LIPL 301355Z 25005KT 8000 NSC 30/21 Q1010 RMK BKN SCT100 SCT140 VIS MIN 8000 WIND THR31 26006KT WIND THR13 27004KT BLU =
LIPL 301400Z 3015/3024 25005KT 9999 SCT060 PROB40 TEMPO 3015/3018 5000 SHRA FEW020CB SCT030
TAF
LIPL 301400Z 3015/3024 25005KT 9999 SCT060 PROB40 TEMPO 3015/3018 5000 SHRA FEW020CB SCT030 =

Notice: Undefined index: sun in /web/htdocs/www.154gruppovirtuale.it/home/modules/mod_wx/tmpl/default.php on line 13

Official Tools

CombatFlite Logo  
 
   

Network

Simulation Platform